Time;durP1;ratioP1;P1;durP2;ratioP2;P2;SDS_P1;SDS_P2;PMS_P1;PMS_P2;Temp;Humidity;BMP_temperature;BMP_pressure;BME280_temperature;BME280_humidity;BME280_pressure;Samples;Min_cycle;Max_cycle;Signal;HPM_P1;HPM_P2
2021/03/09 00:00:33;;;;;;;5.13;3.90;;;;;;;;;;5009777;28;20040;-78
2021/03/09 00:02:59;;;;;;;7.20;4.10;;;;;;;;;;5015241;28;20068;-80
2021/03/09 00:05:37;;;;;;;8.77;4.65;;;;;;;;;;5039280;28;20033;-80
2021/03/09 00:08:03;;;;;;;9.45;4.20;;;;;;;;;;5027577;28;20025;-78
2021/03/09 00:10:30;;;;;;;6.82;3.60;;;;;;;;;;5018166;28;20022;-80
2021/03/09 00:12:56;;;;;;;6.63;4.22;;;;;;;;;;5038195;28;20018;-79
2021/03/09 00:15:27;;;;;;;9.35;3.70;;;;;;;;;;5032201;28;20133;-78
2021/03/09 00:17:53;;;;;;;8.52;3.80;;;;;;;;;;5041012;28;20077;-78
2021/03/09 00:20:20;;;;;;;7.00;3.55;;;;;;;;;;5048839;28;20035;-78
2021/03/09 00:22:47;;;;;;;9.63;3.92;;;;;;;;;;5025466;28;20044;-81
2021/03/09 00:25:13;;;;;;;7.00;3.88;;;;;;;;;;5038475;28;20030;-79
2021/03/09 00:27:43;;;;;;;6.75;3.60;;;0.10;92.90;;;;;;5039589;28;20029;-80
2021/03/09 00:30:12;;;;;;;8.68;4.28;;;0.00;93.00;;;;;;5016910;28;20026;-81
2021/03/09 00:32:38;;;;;;;6.45;3.63;;;;;;;;;;5030055;28;20092;-79
2021/03/09 00:35:04;;;;;;;7.40;3.83;;;0.00;93.60;;;;;;5034056;28;20049;-78
2021/03/09 00:37:30;;;;;;;5.85;3.58;;;;;;;;;;5032492;28;20025;-77
2021/03/09 00:39:57;;;;;;;7.20;3.67;;;;;;;;;;5014065;28;20034;-78
2021/03/09 00:42:25;;;;;;;8.43;3.90;;;;;;;;;;5011062;28;20421;-79
2021/03/09 00:44:52;;;;;;;6.95;3.70;;;;;;;;;;5032314;28;20018;-81
2021/03/09 00:47:18;;;;;;;7.93;3.35;;;;;;;;;;5040600;28;20029;-79
2021/03/09 00:50:02;;;;;;;9.10;3.92;;;;;;;;;;5034204;28;20036;-81
2021/03/09 00:52:34;;;;;;;5.68;3.35;;;;;;;;;;5021835;28;20021;-81
2021/03/09 00:55:06;;;;;;;7.18;3.50;;;-0.20;94.40;;;;;;5034320;28;20133;-82
2021/03/09 00:57:34;;;;;;;10.05;4.07;;;;;;;;;;5041222;28;20029;-81
2021/03/09 01:00:01;;;;;;;10.27;4.35;;;;;;;;;;5034475;28;20025;-78
2021/03/09 01:02:27;;;;;;;5.38;3.30;;;;;;;;;;5034755;28;20133;-81
2021/03/09 01:04:53;;;;;;;8.07;3.90;;;;;;;;;;5042960;28;20030;-80
2021/03/09 01:07:19;;;;;;;6.40;3.70;;;-0.30;95.30;;;;;;5017126;28;20018;-80
2021/03/09 01:09:47;;;;;;;8.25;4.47;;;-0.30;95.40;;;;;;5038742;28;20018;-80
2021/03/09 01:12:14;;;;;;;7.63;4.13;;;;;;;;;;5008314;28;20037;-82
2021/03/09 01:14:40;;;;;;;7.90;3.70;;;;;;;;;;5022294;28;20042;-80
2021/03/09 01:17:09;;;;;;;8.48;4.38;;;-0.30;95.70;;;;;;5027461;28;20033;-79
2021/03/09 01:19:37;;;;;;;9.27;3.72;;;-0.30;95.70;;;;;;5022396;28;20026;-79
2021/03/09 01:22:06;;;;;;;6.40;3.20;;;;;;;;;;5026092;28;20127;-78
2021/03/09 01:24:32;;;;;;;7.38;3.85;;;;;;;;;;5020602;28;20504;-79
2021/03/09 01:26:58;;;;;;;7.57;3.53;;;;;;;;;;5016607;28;20030;-79
2021/03/09 01:29:24;;;;;;;6.10;3.70;;;;;;;;;;5031615;28;20148;-79
2021/03/09 01:31:50;;;;;;;7.00;3.63;;;;;;;;;;5035344;28;20049;-79
2021/03/09 01:34:19;;;;;;;7.47;3.70;;;;;;;;;;5033746;28;20045;-79
2021/03/09 01:36:48;;;;;;;9.13;4.28;;;-0.40;96.10;;;;;;5004858;28;20041;-77
2021/03/09 01:39:17;;;;;;;9.43;4.15;;;;;;;;;;5017506;28;20076;-78
2021/03/09 01:41:43;;;;;;;7.35;3.33;;;;;;;;;;5010634;28;20030;-78
2021/03/09 01:44:09;;;;;;;7.07;3.97;;;;;;;;;;5030752;28;20030;-80
2021/03/09 01:46:46;;;;;;;5.63;3.55;;;-0.40;96.40;;;;;;5038263;28;20061;-80
2021/03/09 01:49:14;;;;;;;9.45;3.97;;;-0.50;96.90;;;;;;5027935;28;20028;-80
2021/03/09 01:51:40;;;;;;;7.40;3.97;;;;;;;;;;5035529;28;20069;-80
2021/03/09 01:54:06;;;;;;;7.00;3.85;;;;;;;;;;5033526;28;20018;-79
2021/03/09 01:56:32;;;;;;;5.90;3.65;;;;;;;;;;5034732;28;20087;-80
2021/03/09 01:59:00;;;;;;;12.65;5.45;;;-0.50;97.10;;;;;;5036246;28;20018;-80
2021/03/09 02:01:26;;;;;;;8.25;3.90;;;-0.50;97.70;;;;;;5036080;28;20121;-79
2021/03/09 02:04:02;;;;;;;7.00;3.85;;;;;;;;;;5032449;28;20021;-80
2021/03/09 02:06:27;;;;;;;6.13;3.75;;;;;;;;;;5034466;28;20060;-79
2021/03/09 02:08:54;;;;;;;11.00;3.80;;;;;;;;;;5046023;28;20026;-81
2021/03/09 02:11:35;;;;;;;7.72;4.20;;;-0.60;98.10;;;;;;5040178;28;20026;-79
2021/03/09 02:14:16;;;;;;;;;;;-0.60;99.60;;;;;;5033188;28;20034;-79
2021/03/09 02:17:05;;;;;;;8.10;4.43;;;-0.50;98.40;;;;;;5035456;28;19917;-80
2021/03/09 02:19:58;;;;;;;7.82;3.47;;;-0.50;98.40;;;;;;5035649;28;20105;-80
2021/03/09 02:22:52;;;;;;;7.40;3.83;;;-0.50;98.70;;;;;;5032615;28;20401;-79
2021/03/09 02:25:58;;;;;;;7.72;4.00;;;-0.50;98.60;;;;;;5038552;28;20022;-78
2021/03/09 02:28:55;;;;;;;7.38;4.13;;;-0.60;98.60;;;;;;5039851;28;20121;-78
2021/03/09 02:34:52;;;;;;;9.00;3.80;;;-0.70;98.60;;;;;;4984430;28;20046;-80
2021/03/09 02:37:19;;;;;;;8.90;4.15;;;;;;;;;;4986280;28;20037;-78
2021/03/09 02:39:47;;;;;;;7.95;4.07;;;-0.70;99.00;;;;;;5035123;28;20036;-78
2021/03/09 02:42:30;;;;;;;12.38;5.40;;;-1.30;99.10;;;;;;5014017;28;20045;-78
2021/03/09 02:44:59;;;;;;;5.82;3.65;;;-0.70;99.20;;;;;;5023814;28;20071;-79
2021/03/09 02:47:26;;;;;;;6.80;3.97;;;-0.70;99.50;;;;;;5029218;28;20021;-79
2021/03/09 02:49:54;;;;;;;10.38;4.40;;;-0.70;99.40;;;;;;5033233;28;20036;-81
2021/03/09 02:52:22;;;;;;;9.20;4.28;;;-0.70;99.20;;;;;;5017235;28;20026;-79
2021/03/09 02:54:50;;;;;;;8.30;4.25;;;-0.80;98.80;;;;;;5013818;28;20741;-79
2021/03/09 02:57:16;;;;;;;8.52;3.92;;;;;;;;;;5027842;28;20617;-81
2021/03/09 02:59:43;;;;;;;9.90;4.20;;;;;;;;;;5029172;28;20033;-79
2021/03/09 03:02:10;;;;;;;9.57;4.60;;;-0.80;99.10;;;;;;5026873;28;20077;-79
2021/03/09 03:04:46;;;;;;;7.60;4.05;;;0.20;99.50;;;;;;5043780;28;20017;-81
2021/03/09 03:07:12;;;;;;;10.82;4.85;;;-0.80;99.50;;;;;;5030170;28;20041;-79
2021/03/09 03:09:39;;;;;;;8.20;4.65;;;-0.80;99.80;;;;;;5033391;28;20018;-78
2021/03/09 03:12:06;;;;;;;10.23;4.05;;;;;;;;;;5042265;28;20033;-80
2021/03/09 03:14:32;;;;;;;8.32;4.43;;;;;;;;;;5028947;28;20037;-78
2021/03/09 03:17:01;;;;;;;8.25;3.90;;;-0.80;99.90;;;;;;5029410;28;20161;-78
2021/03/09 03:19:27;;;;;;;7.82;3.90;;;-0.90;99.90;;;;;;5027172;28;20022;-78
2021/03/09 03:21:54;;;;;;;8.00;4.28;;;-0.90;99.90;;;;;;5011979;28;20034;-78
2021/03/09 03:24:20;;;;;;;7.82;4.18;;;-0.90;99.90;;;;;;5026607;28;20025;-79
2021/03/09 03:26:47;;;;;;;7.63;3.90;;;-0.90;99.90;;;;;;5024446;28;20046;-78
2021/03/09 03:29:14;;;;;;;8.23;4.38;;;-0.90;99.90;;;;;;5025767;28;20118;-80
2021/03/09 03:31:40;;;;;;;9.90;3.85;;;-0.90;99.90;;;;;;5025692;28;20040;-78
2021/03/09 03:34:06;;;;;;;8.48;4.50;;;-0.90;99.90;;;;;;5025174;28;20038;-79
2021/03/09 03:36:36;;;;;;;6.55;4.63;;;-0.90;99.90;;;;;;5025737;28;20035;-79
2021/03/09 03:39:04;;;;;;;7.50;4.05;;;-1.00;99.90;;;;;;5011593;28;20026;-78
2021/03/09 03:41:30;;;;;;;10.07;3.78;;;-0.90;99.90;;;;;;5028848;28;20021;-78
2021/03/09 03:43:56;;;;;;;7.75;4.45;;;-0.90;99.90;;;;;;5014246;28;20029;-79
2021/03/09 03:46:22;;;;;;;9.10;4.25;;;-0.90;99.90;;;;;;5038476;28;20018;-78
2021/03/09 03:48:49;;;;;;;9.23;4.13;;;-0.90;99.90;;;;;;5037597;28;20056;-79
2021/03/09 03:51:17;;;;;;;8.00;3.75;;;-0.90;99.90;;;;;;5026326;28;20040;-77
2021/03/09 03:54:24;;;;;;;8.30;4.82;;;-0.90;99.90;;;;;;5020675;28;20127;-79
2021/03/09 03:56:54;;;;;;;7.82;4.20;;;-1.00;99.90;;;;;;5004846;28;20042;-79
2021/03/09 03:59:39;;;;;;;8.82;4.40;;;-1.00;99.90;;;;;;5036827;28;20033;-78
2021/03/09 04:02:08;;;;;;;7.15;4.40;;;-1.00;99.90;;;;;;5039928;28;20059;-80
2021/03/09 04:04:38;;;;;;;9.23;4.03;;;-1.00;99.90;;;;;;5022802;28;20021;-79
2021/03/09 04:07:05;;;;;;;9.57;5.05;;;-1.10;99.90;;;;;;5031064;28;20033;-78
2021/03/09 04:09:32;;;;;;;12.20;4.88;;;-1.00;99.90;;;;;;5033142;28;20037;-80
2021/03/09 04:11:59;;;;;;;7.75;3.90;;;-1.10;99.90;;;;;;5029439;28;20033;-79
2021/03/09 04:14:25;;;;;;;7.50;3.92;;;-1.10;99.90;;;;;;5010279;28;20063;-79
2021/03/09 04:16:53;;;;;;;9.30;4.97;;;-1.10;99.90;;;;;;5009304;28;20098;-80
2021/03/09 04:19:22;;;;;;;10.40;4.32;;;-1.10;99.90;;;;;;5009068;28;20452;-79
2021/03/09 04:21:52;;;;;;;9.82;4.20;;;-1.10;99.90;;;;;;5034225;28;20029;-79
2021/03/09 04:24:19;;;;;;;9.13;4.82;;;-1.10;99.90;;;;;;5012801;28;20109;-79
2021/03/09 04:26:46;;;;;;;7.70;4.25;;;-1.10;99.90;;;;;;5028513;28;20041;-79
2021/03/09 04:29:15;;;;;;;7.55;4.28;;;-1.20;99.90;;;;;;5030583;28;20125;-81
2021/03/09 04:31:42;;;;;;;9.43;4.97;;;-1.20;99.90;;;;;;5003119;28;20124;-81
2021/03/09 04:34:08;;;;;;;9.88;4.82;;;-1.20;99.90;;;;;;5023544;28;20041;-79
2021/03/09 04:36:35;;;;;;;8.98;4.07;;;;;;;;;;5008328;28;20031;-79
2021/03/09 04:39:05;;;;;;;9.80;4.78;;;-1.10;99.90;;;;;;5021370;28;20034;-79
2021/03/09 04:41:34;;;;;;;11.38;5.20;;;-1.10;99.90;;;;;;5024364;28;20034;-79
2021/03/09 04:44:01;;;;;;;9.80;4.50;;;-1.10;99.90;;;;;;5026457;28;20037;-80
2021/03/09 04:46:28;;;;;;;9.20;4.82;;;-1.10;99.90;;;;;;5025450;28;20042;-80
2021/03/09 04:48:54;;;;;;;9.23;4.47;;;;;;;;;;5022291;28;20509;-79
2021/03/09 04:51:20;;;;;;;9.32;4.88;;;;;;;;;;5002225;28;20068;-79
2021/03/09 04:53:47;;;;;;;8.60;4.55;;;-1.20;99.90;;;;;;5021515;28;20327;-79
2021/03/09 04:56:13;;;;;;;8.65;4.95;;;;;;;;;;5026775;28;20013;-79
2021/03/09 04:58:39;;;;;;;9.90;4.80;;;;;;;;;;4994227;28;20476;-78
2021/03/09 05:01:06;;;;;;;11.45;5.28;;;-1.10;99.90;;;;;;5024871;28;20382;-79
2021/03/09 05:03:32;;;;;;;10.00;4.63;;;-1.20;99.90;;;;;;5022714;28;20053;-78
2021/03/09 05:05:58;;;;;;;6.93;4.40;;;1.30;99.90;;;;;;5001722;28;20025;-78
2021/03/09 05:08:26;;;;;;;7.65;4.13;;;-1.20;99.90;;;;;;5025107;28;20033;-78
2021/03/09 05:11:00;;;;;;;11.00;4.70;;;-1.30;99.90;;;;;;5024155;28;20018;-78
2021/03/09 05:13:26;;;;;;;13.73;5.15;;;-1.30;99.90;;;;;;5029293;28;20038;-78
2021/03/09 05:15:51;;;;;;;8.40;4.70;;;-1.30;99.90;;;;;;5024395;28;20022;-77
2021/03/09 05:18:17;;;;;;;14.43;4.63;;;-1.30;99.90;;;;;;5011135;28;20044;-77
2021/03/09 05:20:43;;;;;;;11.73;4.65;;;-1.30;99.90;;;;;;5014412;28;20936;-78
2021/03/09 05:23:08;;;;;;;12.95;5.40;;;-1.30;99.90;;;;;;5026531;28;20041;-78
2021/03/09 05:25:34;;;;;;;9.45;4.22;;;-1.30;99.90;;;;;;5028635;28;20032;-78
2021/03/09 05:28:00;;;;;;;9.70;4.65;;;-1.30;99.90;;;;;;5029163;28;20034;-78
2021/03/09 05:30:27;;;;;;;10.80;4.35;;;-1.30;99.90;;;;;;5027712;28;20033;-78
2021/03/09 05:32:53;;;;;;;8.27;4.43;;;-1.30;99.90;;;;;;5027633;28;20549;-79
2021/03/09 05:35:18;;;;;;;10.23;5.20;;;-1.30;99.90;;;;;;5028887;28;20033;-78
2021/03/09 05:37:45;;;;;;;11.43;5.00;;;-1.30;99.90;;;;;;5025987;28;20057;-80
2021/03/09 05:40:12;;;;;;;9.63;4.05;;;-1.30;99.90;;;;;;5034212;28;20072;-78
2021/03/09 05:42:38;;;;;;;11.73;4.60;;;-1.30;99.90;;;;;;5025553;28;20183;-79
2021/03/09 05:45:07;;;;;;;14.18;5.35;;;-1.30;99.90;;;;;;5029503;28;20058;-80
2021/03/09 05:47:35;;;;;;;8.48;4.63;;;-1.20;99.90;;;;;;5027083;28;20056;-78
2021/03/09 05:50:02;;;;;;;10.40;4.53;;;-1.30;99.90;;;;;;5011179;28;20029;-79
2021/03/09 05:52:27;;;;;;;6.47;4.22;;;-1.20;99.90;;;;;;5026310;28;20038;-79
2021/03/09 05:54:53;;;;;;;10.45;4.97;;;-1.20;99.90;;;;;;5031291;28;20113;-78
2021/03/09 05:57:18;;;;;;;8.10;4.68;;;-1.10;99.90;;;;;;5022039;28;20037;-80
2021/03/09 05:59:44;;;;;;;8.05;5.68;;;-1.10;99.90;;;;;;5029287;28;20072;-80
2021/03/09 06:02:10;;;;;;;9.30;4.88;;;-1.10;99.90;;;;;;5019643;28;20624;-79
2021/03/09 06:04:45;;;;;;;8.65;4.57;;;-1.00;99.90;;;;;;5037869;28;20022;-78
2021/03/09 06:07:11;;;;;;;14.52;5.93;;;;;;;;;;5035687;28;20034;-79
2021/03/09 06:09:39;;;;;;;10.38;4.45;;;-0.90;99.90;;;;;;5031282;28;20029;-79
2021/03/09 06:12:12;;;;;;;9.48;4.60;;;-0.90;99.90;;;;;;5021895;28;20090;-82
2021/03/09 06:15:01;;;;;;;10.02;4.60;;;-0.90;99.90;;;;;;5033594;28;20030;-79
2021/03/09 06:17:35;;;;;;;9.45;4.30;;;-0.80;99.90;;;;;;5029444;28;20053;-79
2021/03/09 06:20:02;;;;;;;8.82;4.60;;;-0.80;99.90;;;;;;5028300;28;20022;-80
2021/03/09 06:22:42;;;;;;;9.73;4.95;;;-0.70;99.90;;;;;;5007933;28;20068;-80
2021/03/09 06:25:10;;;;;;;13.98;5.53;;;-0.70;99.90;;;;;;5031424;28;20288;-81
2021/03/09 06:27:36;;;;;;;9.15;5.03;;;-0.70;99.90;;;;;;5019157;28;20029;-80
2021/03/09 06:30:05;;;;;;;9.75;4.85;;;-0.70;99.80;;;;;;5027006;28;20056;-82
2021/03/09 06:32:43;;;;;;;9.77;5.00;;;-0.60;99.70;;;;;;5026740;28;20436;-79
2021/03/09 06:35:30;;;;;;;11.65;5.22;;;-0.60;99.50;;;;;;5019786;28;20070;-80
2021/03/09 06:38:17;;;;;;;12.63;5.85;;;-0.50;99.10;;;;;;5028295;28;20030;-81
2021/03/09 06:40:44;;;;;;;9.95;4.85;;;-0.50;98.90;;;;;;5025111;28;20565;-78
2021/03/09 06:43:14;;;;;;;9.55;4.47;;;-0.50;99.00;;;;;;5028598;28;20038;-81
2021/03/09 06:45:40;;;;;;;10.45;4.63;;;-0.40;99.00;;;;;;5028453;28;20022;-82
2021/03/09 06:48:18;;;;;;;12.18;5.75;;;-0.40;99.00;;;;;;5029561;28;20059;-80
2021/03/09 06:50:44;;;;;;;7.72;4.75;;;-0.40;98.70;;;;;;5017187;28;20022;-78
2021/03/09 06:53:39;;;;;;;11.23;5.93;;;-0.30;98.10;;;;;;5023868;28;20028;-81
2021/03/09 06:56:24;;;;;;;10.32;4.43;;;-0.30;98.30;;;;;;5008494;28;20041;-78
2021/03/09 06:58:50;;;;;;;20.45;5.38;;;;;;;;;;5018766;28;20042;-80
2021/03/09 07:01:16;;;;;;;10.77;5.78;;;-0.10;97.80;;;;;;5036825;28;20049;-79
2021/03/09 07:03:42;;;;;;;9.70;4.70;;;;;;;;;;5038312;28;20089;-79
2021/03/09 07:06:08;;;;;;;9.55;5.10;;;;;;;;;;5036920;28;20026;-80
2021/03/09 07:08:34;;;;;;;14.27;5.88;;;0.00;97.40;;;;;;5018776;28;20022;-78
2021/03/09 07:11:00;;;;;;;9.07;5.00;;;0.70;96.80;;;;;;5017470;28;20052;-79
2021/03/09 07:13:27;;;;;;;10.10;4.90;;;0.20;96.60;;;;;;5018772;28;20042;-79
2021/03/09 07:15:54;;;;;;;12.15;5.50;;;0.30;96.00;;;;;;5037704;28;20038;-78
2021/03/09 07:18:27;;;;;;;9.75;5.43;;;0.40;95.40;;;;;;5015162;28;20060;-80
2021/03/09 07:20:54;;;;;;;10.18;5.22;;;0.40;95.20;;;;;;5036127;28;20029;-79
2021/03/09 07:23:22;;;;;;;10.88;5.25;;;0.50;95.40;;;;;;5040061;28;20057;-77
2021/03/09 07:26:00;;;;;;;10.18;5.28;;;0.50;95.10;;;;;;5030215;28;20078;-78
2021/03/09 07:28:45;;;;;;;9.43;5.95;;;0.60;94.30;;;;;;5034513;28;20094;-79
2021/03/09 07:31:12;;;;;;;13.73;5.90;;;0.60;94.40;;;;;;5008496;28;20026;-77
2021/03/09 07:33:39;;;;;;;15.57;6.72;;;0.80;94.40;;;;;;5032725;28;20053;-78
2021/03/09 07:36:06;;;;;;;17.30;7.25;;;0.70;94.60;;;;;;5021311;28;20061;-78
2021/03/09 07:38:32;;;;;;;19.13;7.15;;;0.90;92.90;;;;;;5032877;28;20060;-78
2021/03/09 07:40:59;;;;;;;11.75;5.50;;;0.90;93.40;;;;;;5033467;28;20028;-81
2021/03/09 07:43:25;;;;;;;12.40;5.50;;;1.10;92.70;;;;;;5033751;28;20046;-78
2021/03/09 07:45:51;;;;;;;13.45;5.53;;;0.90;93.10;;;;;;5034887;28;20056;-77
2021/03/09 07:48:19;;;;;;;15.25;6.63;;;0.90;93.60;;;;;;5034544;28;20030;-79
2021/03/09 07:50:49;;;;;;;10.63;6.18;;;1.10;93.20;;;;;;5036733;28;20540;-78
2021/03/09 07:53:19;;;;;;;13.30;6.43;;;1.20;92.20;;;;;;5027432;28;20029;-78
2021/03/09 07:55:49;;;;;;;16.17;5.70;;;1.30;90.60;;;;;;5032348;28;20030;-78
2021/03/09 07:58:23;;;;;;;13.02;5.82;;;1.40;91.10;;;;;;5033798;28;20026;-77
2021/03/09 08:00:58;;;;;;;12.40;5.82;;;1.50;90.60;;;;;;5028738;28;20033;-79
2021/03/09 08:03:27;;;;;;;11.48;6.35;;;1.20;91.90;;;;;;5021894;28;20030;-78
2021/03/09 08:06:04;;;;;;;12.93;6.28;;;1.50;89.20;;;;;;5033599;28;20063;-78
2021/03/09 08:08:50;;;;;;;17.70;7.13;;;1.50;90.20;;;;;;5011162;28;20492;-76
2021/03/09 08:11:18;;;;;;;26.38;10.38;;;1.70;88.50;;;;;;5026900;28;20060;-77
2021/03/09 08:13:48;;;;;;;12.95;6.75;;;2.00;83.00;;;;;;5028124;28;20033;-78
2021/03/09 08:16:43;;;;;;;20.77;9.77;;;2.00;82.90;;;;;;5025775;28;20061;-78
2021/03/09 08:19:10;;;;;;;12.95;7.05;;;2.10;76.90;;;;;;4999338;28;20037;-78
2021/03/09 08:21:38;;;;;;;13.07;6.80;;;2.20;74.70;;;;;;5019023;28;20841;-75
2021/03/09 08:24:05;;;;;;;16.13;6.80;;;2.40;74.20;;;;;;4998423;28;20444;-74
2021/03/09 08:26:31;;;;;;;38.05;13.15;;;2.70;72.90;;;;;;5026633;28;20044;-74
2021/03/09 08:28:57;;;;;;;11.85;7.45;;;2.80;70.70;;;;;;5003917;28;20030;-75
2021/03/09 08:31:26;;;;;;;17.95;9.00;;;2.70;70.20;;;;;;5024994;28;20026;-74
2021/03/09 08:34:08;;;;;;;24.98;11.75;;;2.70;70.00;;;;;;5013506;28;20166;-76
2021/03/09 08:36:38;;;;;;;9.43;6.07;;;2.80;68.80;;;;;;5025381;28;20438;-75
2021/03/09 08:39:11;;;;;;;14.98;6.72;;;3.00;67.90;;;;;;5013589;28;20037;-75
2021/03/09 08:44:20;;;;;;;10.88;6.20;;;3.00;66.80;;;;;;5027191;28;20030;-75
2021/03/09 08:46:57;;;;;;;15.18;6.72;;;3.30;65.50;;;;;;5026725;28;20026;-77
2021/03/09 08:49:38;;;;;;;15.38;7.03;;;3.20;65.60;;;;;;5021434;28;20046;-75
2021/03/09 08:52:11;;;;;;;15.00;6.40;;;3.40;65.00;;;;;;5025352;28;20441;-75
2021/03/09 08:54:41;;;;;;;13.32;7.10;;;3.60;64.40;;;;;;5022128;28;21289;-76
2021/03/09 08:57:11;;;;;;;17.13;6.60;;;3.60;63.70;;;;;;5021703;28;20127;-76
2021/03/09 08:59:39;;;;;;;10.85;6.45;;;3.90;63.20;;;;;;5020042;28;20044;-76
2021/03/09 09:02:08;;;;;;;14.68;6.53;;;3.80;62.20;;;;;;5023727;28;20321;-75
2021/03/09 09:04:35;;;;;;;11.75;5.78;;;3.70;62.60;;;;;;5023008;28;20489;-76
2021/03/09 09:07:20;;;;;;;28.77;9.90;;;3.60;62.90;;;;;;5013000;28;20044;-75
2021/03/09 09:09:46;;;;;;;18.02;5.90;;;3.80;62.40;;;;;;5029204;28;20025;-76
2021/03/09 09:12:26;;;;;;;9.50;5.80;;;3.90;62.10;;;;;;5027714;28;20087;-75
2021/03/09 09:15:09;;;;;;;10.95;5.30;;;4.00;61.80;;;;;;5023357;28;20117;-74
2021/03/09 09:17:35;;;;;;;10.35;5.80;;;4.10;60.60;;;;;;5030546;28;20044;-77
2021/03/09 09:20:08;;;;;;;15.68;6.25;;;4.20;60.60;;;;;;5028999;28;20037;-76
2021/03/09 09:22:33;;;;;;;13.15;5.90;;;4.20;59.60;;;;;;5031761;28;20044;-77
2021/03/09 09:25:02;;;;;;;16.15;8.38;;;4.20;60.20;;;;;;5024944;28;20029;-74
2021/03/09 09:27:36;;;;;;;12.25;6.78;;;4.20;60.30;;;;;;5008574;28;20029;-75
2021/03/09 09:30:03;;;;;;;12.30;6.60;;;4.50;58.80;;;;;;5003671;28;20077;-76
2021/03/09 09:32:45;;;;;;;17.67;7.78;;;4.50;58.40;;;;;;5025165;28;20132;-77
2021/03/09 09:35:11;;;;;;;8.48;5.20;;;4.70;57.90;;;;;;5026743;28;20053;-76
2021/03/09 09:38:16;;;;;;;10.25;5.10;;;5.00;55.90;;;;;;5028478;28;20030;-76
2021/03/09 09:40:46;;;;;;;7.57;4.82;;;5.10;56.00;;;;;;4963490;28;20057;-76
2021/03/09 09:43:19;;;;;;;8.68;4.57;;;5.20;54.80;;;;;;5015157;28;20041;-75
2021/03/09 09:45:51;;;;;;;8.65;5.28;;;5.00;54.30;;;;;;5006649;28;20036;-76
2021/03/09 09:48:21;;;;;;;;;;;5.10;54.10;;;;;;5022627;28;20033;-76
2021/03/09 09:50:48;;;;;;;9.80;5.07;;;5.20;54.60;;;;;;5019744;28;20003;-76
2021/03/09 09:53:31;;;;;;;12.50;5.70;;;5.40;54.30;;;;;;5005959;28;20501;-76
2021/03/09 09:55:59;;;;;;;10.38;5.55;;;5.30;53.80;;;;;;5029842;28;20254;-76
2021/03/09 09:58:44;;;;;;;15.02;6.88;;;5.20;54.00;;;;;;5024532;28;20029;-77
2021/03/09 10:01:17;;;;;;;7.22;4.78;;;5.50;51.00;;;;;;5016892;28;20065;-77
2021/03/09 10:03:56;;;;;;;12.02;5.13;;;5.40;51.50;;;;;;5026930;28;20033;-76
2021/03/09 10:06:26;;;;;;;8.90;4.70;;;5.70;52.20;;;;;;5018988;28;20054;-75
2021/03/09 10:08:52;;;;;;;7.65;4.93;;;6.00;51.00;;;;;;5032583;28;20056;-77
2021/03/09 10:11:19;;;;;;;48.33;10.20;;;5.90;50.20;;;;;;5007307;28;20499;-76
2021/03/09 10:13:45;;;;;;;9.40;5.55;;;6.20;50.10;;;;;;5035667;28;20021;-79
2021/03/09 10:16:11;;;;;;;11.50;4.80;;;6.50;48.20;;;;;;4998875;28;20029;-77
2021/03/09 10:19:21;;;;;;;8.77;4.20;;;6.80;48.00;;;;;;5021278;28;20028;-75
2021/03/09 10:21:55;;;;;;;6.97;3.83;;;6.80;47.70;;;;;;5031924;28;20725;-77
2021/03/09 10:24:31;;;;;;;9.45;5.63;;;7.00;47.30;;;;;;5036275;28;20040;-76
2021/03/09 10:27:04;;;;;;;18.40;6.60;;;7.50;46.50;;;;;;5019942;28;20018;-80
2021/03/09 10:29:35;;;;;;;8.00;4.18;;;9.00;45.10;;;;;;5048045;28;20045;-79
2021/03/09 10:32:05;;;;;;;6.20;3.75;;;10.50;41.90;;;;;;5049335;28;20052;-79
2021/03/09 10:34:55;;;;;;;67.80;49.58;;;11.80;39.90;;;;;;5036540;28;20046;-77
2021/03/09 10:38:03;;;;;;;9.90;6.38;;;12.40;38.60;;;;;;5027217;28;20065;-77
2021/03/09 10:40:34;;;;;;;6.25;4.03;;;13.80;36.50;;;;;;5032880;28;20034;-76
2021/03/09 10:43:07;;;;;;;;;;;15.10;36.00;;;;;;5031877;28;20033;-77
2021/03/09 10:45:34;;;;;;;10.88;6.78;;;;;;;;;;5025489;28;19917;-77
2021/03/09 10:48:08;;;;;;;8.15;4.47;;;11.10;38.40;;;;;;5019537;28;20032;-77
2021/03/09 10:50:42;;;;;;;11.35;6.53;;;9.90;40.80;;;;;;5024997;28;20052;-78
2021/03/09 10:53:34;;;;;;;8.50;4.20;;;9.00;41.10;;;;;;5028382;28;20068;-79
2021/03/09 10:56:01;;;;;;;7.95;4.65;;;9.10;40.80;;;;;;5022252;28;20037;-77
2021/03/09 10:58:30;;;;;;;8.85;3.75;;;8.90;42.00;;;;;;5011697;28;20022;-77
2021/03/09 11:00:56;;;;;;;7.07;3.90;;;;;;;;;;5028252;28;20070;-78
2021/03/09 11:03:23;;;;;;;6.95;3.40;;;8.20;40.70;;;;;;5029312;28;20061;-74
2021/03/09 11:05:49;;;;;;;10.45;5.35;;;7.70;42.20;;;;;;5023852;28;20041;-77
2021/03/09 11:08:15;;;;;;;9.88;4.03;;;8.10;42.50;;;;;;5026833;28;20030;-77
2021/03/09 11:10:40;;;;;;;7.07;2.78;;;7.90;42.50;;;;;;5025493;28;20090;-78
2021/03/09 11:13:06;;;;;;;6.38;3.78;;;8.20;41.50;;;;;;5026435;28;20021;-76
2021/03/09 11:15:32;;;;;;;4.43;2.60;;;7.80;41.30;;;;;;5012101;28;20033;-75
2021/03/09 11:18:00;;;;;;;4.82;3.42;;;7.80;41.80;;;;;;5028048;28;20033;-78
2021/03/09 11:20:26;;;;;;;3.55;2.20;;;7.80;42.10;;;;;;5019142;28;20561;-76
2021/03/09 11:22:52;;;;;;;3.88;2.50;;;7.50;41.60;;;;;;5023007;28;20061;-76
2021/03/09 11:25:18;;;;;;;4.40;2.63;;;7.50;41.30;;;;;;5022322;28;20454;-77
2021/03/09 11:27:44;;;;;;;8.43;5.30;;;;;;;;;;5025441;28;20025;-76
2021/03/09 11:30:10;;;;;;;10.57;2.78;;;7.90;42.20;;;;;;5024919;28;20030;-78
2021/03/09 11:32:36;;;;;;;3.25;2.30;;;7.90;42.80;;;;;;5022679;28;20110;-76
2021/03/09 11:35:05;;;;;;;4.03;2.28;;;8.50;41.70;;;;;;5013828;28;20049;-76
2021/03/09 11:37:30;;;;;;;5.38;3.70;;;8.50;40.50;;;;;;4997144;28;20136;-77
2021/03/09 11:39:56;;;;;;;4.32;2.35;;;8.50;40.50;;;;;;5024874;28;20049;-76
2021/03/09 11:42:22;;;;;;;7.05;3.08;;;8.70;40.60;;;;;;5026724;28;20034;-76
2021/03/09 11:44:47;;;;;;;4.05;2.50;;;8.90;40.40;;;;;;5023916;28;20049;-76
2021/03/09 11:47:21;;;;;;;5.60;3.00;;;9.50;39.20;;;;;;5026611;28;20481;-78
2021/03/09 11:49:47;;;;;;;3.72;2.40;;;10.40;37.40;;;;;;5006689;28;20053;-78
2021/03/09 11:52:18;;;;;;;3.50;2.95;;;11.50;36.00;;;;;;5025549;28;20037;-76
2021/03/09 11:54:47;;;;;;;5.82;3.22;;;11.80;36.20;;;;;;5024198;28;20045;-77
2021/03/09 11:57:13;;;;;;;3.38;2.78;;;;;;;;;;5009773;28;20052;-77
2021/03/09 11:59:42;;;;;;;9.68;3.97;;;13.30;34.90;;;;;;5029242;28;20469;-78
2021/03/09 12:02:07;;;;;;;6.32;3.30;;;14.80;36.30;;;;;;5013868;28;20381;-77
2021/03/09 12:04:35;;;;;;;3.63;2.67;;;14.50;36.20;;;;;;5030456;28;20162;-77
2021/03/09 12:07:04;;;;;;;5.90;3.47;;;13.50;34.80;;;;;;5025976;28;20065;-76
2021/03/09 12:09:29;;;;;;;7.40;3.72;;;11.30;36.20;;;;;;5037080;28;20047;-77
2021/03/09 12:12:00;;;;;;;4.90;3.47;;;10.80;37.90;;;;;;5026945;28;20065;-77
2021/03/09 12:15:09;;;;;;;5.07;3.35;;;11.00;37.30;;;;;;5030348;28;20034;-77
2021/03/09 12:17:25;;;;;;;14.30;5.50;;;11.10;36.80;;;;;;5013216;28;20026;-79
2021/03/09 12:19:56;;;;;;;4.68;2.92;;;11.30;37.00;;;;;;5023389;28;20458;-77
2021/03/09 12:22:31;;;;;;;;;;;10.90;37.30;;;;;;5028654;28;20038;-78
2021/03/09 12:25:00;;;;;;;4.95;3.60;;;;;;;;;;5029372;28;20061;-79
2021/03/09 12:27:26;;;;;;;4.13;3.28;;;;;;;;;;5026113;28;20033;-79
2021/03/09 12:29:52;;;;;;;5.25;3.33;;;;;;;;;;5022433;28;20029;-78
2021/03/09 12:32:21;;;;;;;7.88;3.80;;;;;;;;;;5022342;28;20042;-76
2021/03/09 12:35:12;;;;;;;4.63;3.25;;;10.10;38.20;;;;;;5020486;28;20041;-77
2021/03/09 12:37:56;;;;;;;6.00;3.03;;;10.00;38.80;;;;;;5018745;28;20029;-80
2021/03/09 12:40:22;;;;;;;3.83;2.95;;;;;;;;;;4995751;28;20022;-76
2021/03/09 12:43:08;;;;;;;4.72;3.63;;;11.40;37.00;;;;;;5020167;28;20041;-78
2021/03/09 12:45:34;;;;;;;5.72;4.22;;;;;;;;;;5018753;28;20033;-77
2021/03/09 12:48:00;;;;;;;5.60;3.55;;;11.70;35.80;;;;;;5003002;28;20030;-78
2021/03/09 12:50:34;;;;;;;5.93;3.83;;;11.70;36.30;;;;;;5017474;28;20026;-80
2021/03/09 12:52:59;;;;;;;4.28;3.10;;;11.80;35.70;;;;;;5018162;28;20033;-76
2021/03/09 12:55:25;;;;;;;4.60;3.42;;;12.10;35.40;;;;;;5023253;28;20029;-78
2021/03/09 12:57:50;;;;;;;4.22;3.22;;;11.80;35.30;;;;;;5021371;28;20019;-76
2021/03/09 13:00:16;;;;;;;4.10;3.15;;;11.00;36.10;;;;;;5020294;28;20446;-78
2021/03/09 13:02:42;;;;;;;4.70;3.25;;;10.00;37.40;;;;;;5025825;28;20518;-76
2021/03/09 13:05:08;;;;;;;4.25;2.95;;;9.60;37.60;;;;;;5025624;28;20029;-76
2021/03/09 13:07:34;;;;;;;4.18;2.95;;;9.50;37.80;;;;;;5017843;28;20030;-75
2021/03/09 13:10:00;;;;;;;7.15;3.42;;;9.90;37.30;;;;;;5025242;28;20021;-76
2021/03/09 13:12:26;;;;;;;4.03;2.70;;;9.90;37.20;;;;;;5025733;28;20065;-76
2021/03/09 13:14:52;;;;;;;4.20;2.88;;;9.90;37.00;;;;;;5025208;28;20086;-75
2021/03/09 13:17:17;;;;;;;4.78;2.50;;;9.60;37.40;;;;;;5028856;28;20069;-78
2021/03/09 13:19:43;;;;;;;7.15;4.20;;;10.30;36.80;;;;;;5012500;28;20044;-78
2021/03/09 13:22:08;;;;;;;5.63;2.92;;;10.60;35.80;;;;;;5037217;28;20034;-77
2021/03/09 13:24:34;;;;;;;6.30;4.07;;;10.40;36.20;;;;;;5033116;28;20087;-78
2021/03/09 13:27:00;;;;;;;4.55;3.30;;;10.40;36.50;;;;;;5019033;28;20082;-76
2021/03/09 13:29:25;;;;;;;5.45;3.60;;;10.10;36.20;;;;;;5028446;28;20034;-75